McLean, Nebraska
Current Conditions -  °F | °C
As of 4:15 AM on Thursday 29 Jan 2015 (Local Time) from KLCG Reporting Station
Overcast Overcast  
Wind Chill: 22°   Ceiling: 2100
Heat Index: 35°   Visibility: 10mi
Dew Point: 29°   Wind: 26mph
Humidity: 79%   Direction: 340°NNW
Pressure: 30.18"   Gusts: 36mph
Location:  42.39°N, 97.47°W
Report Text: KLCG 291015Z AUTO 34023G31KT 10SM OVC021 02/M02 A3018 RMK AO2 T00161017
Loading
Personal Weather Stations






























Interactive Weather Map New forecast layout! Learn more

10-Day Weather Forecast

Advertisements
Track Severe Weather on mobile